UAL2610 KLAX-KDEN
Flight info
| Callsign | UAL2610 |
|---|---|
| Flight time | 1h 54m |
| Altitude | 35000 |
| Route | ORCKA5 LAS J146 DICEE BUMMP SSKII4 |
| Aircraft | B739/M-SDE2E3FGHIRWXY/LB1 |
Departure
| Time | 2026-05-08 00:58 |
|---|---|
| Airport | Los Angeles International Airport (KLAX) |
Arrival
| Time | 2026-05-08 02:52 |
|---|---|
| Airport | Denver International Airport (KDEN) |
| Time | Latitude | Longitude | Altitude | Speed | Heading |
|---|---|---|---|---|---|
| 2026-05-08 00:36 | 33.94154 | -118.39893 | 121 ft | 0 kts | 272° |
| 2026-05-08 00:47 | 33.94154 | -118.39865 | 123 ft | 4 kts | 256° |
| 2026-05-08 00:47 | 33.94164 | -118.39841 | 122 ft | 4 kts | 196° |
| 2026-05-08 00:47 | 33.94173 | -118.39839 | 122 ft | 0 kts | 172° |
| 2026-05-08 00:52 | 33.94159 | -118.39837 | 122 ft | 8 kts | 171° |
| 2026-05-08 00:52 | 33.94088 | -118.39827 | 123 ft | 11 kts | 176° |
| 2026-05-08 00:52 | 33.94045 | -118.39826 | 122 ft | 0 kts | 176° |
| 2026-05-08 00:53 | 33.94028 | -118.39824 | 121 ft | 8 kts | 174° |
| 2026-05-08 00:53 | 33.93948 | -118.39806 | 122 ft | 13 kts | 163° |
| 2026-05-08 00:53 | 33.93906 | -118.39724 | 125 ft | 12 kts | 84° |
| 2026-05-08 00:53 | 33.93917 | -118.39622 | 125 ft | 13 kts | 83° |
| 2026-05-08 00:54 | 33.93926 | -118.39534 | 120 ft | 19 kts | 83° |
| 2026-05-08 00:54 | 33.93951 | -118.39294 | 125 ft | 23 kts | 82° |
| 2026-05-08 00:54 | 33.93974 | -118.39067 | 125 ft | 29 kts | 83° |
| 2026-05-08 00:54 | 33.93998 | -118.38836 | 120 ft | 27 kts | 83° |
| 2026-05-08 00:55 | 33.94020 | -118.38619 | 124 ft | 25 kts | 83° |
| 2026-05-08 00:55 | 33.94040 | -118.38416 | 123 ft | 24 kts | 83° |
| 2026-05-08 00:55 | 33.94054 | -118.38288 | 125 ft | 23 kts | 82° |
| 2026-05-08 00:55 | 33.94072 | -118.38107 | 125 ft | 16 kts | 82° |
| 2026-05-08 00:56 | 33.94074 | -118.38025 | 125 ft | 0 kts | 112° |
| 2026-05-08 00:56 | 33.94069 | -118.38017 | 122 ft | 7 kts | 131° |
| 2026-05-08 00:57 | 33.93999 | -118.37996 | 121 ft | 11 kts | 208° |
| 2026-05-08 00:57 | 33.93974 | -118.38123 | 125 ft | 36 kts | 263° |
| 2026-05-08 00:57 | 33.93915 | -118.38700 | 125 ft | 101 kts | 263° |
| 2026-05-08 00:57 | 33.93806 | -118.39759 | 127 ft | 151 kts | 263° |
| 2026-05-08 00:58 | 33.93670 | -118.41077 | 468 ft | 164 kts | 261° |
| 2026-05-08 00:58 | 33.93515 | -118.42411 | 1077 ft | 167 kts | 261° |
| 2026-05-08 00:58 | 33.93373 | -118.43838 | 1634 ft | 172 kts | 264° |
| 2026-05-08 00:58 | 33.93236 | -118.45301 | 2135 ft | 184 kts | 265° |
| 2026-05-08 00:59 | 33.92939 | -118.46893 | 2357 ft | 207 kts | 248° |
| 2026-05-08 00:59 | 33.92317 | -118.48543 | 2639 ft | 220 kts | 248° |
| 2026-05-08 00:59 | 33.91748 | -118.50234 | 3294 ft | 219 kts | 250° |
| 2026-05-08 00:59 | 33.91213 | -118.51963 | 3965 ft | 221 kts | 252° |
| 2026-05-08 01:00 | 33.90705 | -118.53694 | 4848 ft | 217 kts | 253° |
| 2026-05-08 01:00 | 33.90218 | -118.55411 | 5597 ft | 220 kts | 253° |
| 2026-05-08 01:00 | 33.89461 | -118.57008 | 6251 ft | 229 kts | 226° |
| 2026-05-08 01:00 | 33.88033 | -118.57951 | 6917 ft | 240 kts | 194° |
| 2026-05-08 01:01 | 33.86347 | -118.57883 | 7532 ft | 250 kts | 163° |
| 2026-05-08 01:01 | 33.84870 | -118.56789 | 8208 ft | 254 kts | 132° |
| 2026-05-08 01:01 | 33.84009 | -118.54952 | 8883 ft | 254 kts | 101° |
| 2026-05-08 01:01 | 33.84002 | -118.52868 | 9601 ft | 249 kts | 70° |
| 2026-05-08 01:02 | 33.84824 | -118.51093 | 10290 ft | 242 kts | 43° |
| 2026-05-08 01:02 | 33.86075 | -118.49734 | 10939 ft | 244 kts | 36° |
| 2026-05-08 01:02 | 33.87475 | -118.48522 | 11284 ft | 261 kts | 33° |
| 2026-05-08 01:02 | 33.89044 | -118.47212 | 11454 ft | 286 kts | 34° |
| 2026-05-08 01:03 | 33.90740 | -118.45775 | 11642 ft | 309 kts | 34° |
| 2026-05-08 01:03 | 33.92531 | -118.44164 | 11789 ft | 333 kts | 41° |
| 2026-05-08 01:03 | 33.94113 | -118.42025 | 11953 ft | 354 kts | 53° |
| 2026-05-08 01:03 | 33.95550 | -118.39468 | 12095 ft | 373 kts | 55° |
| 2026-05-08 01:04 | 33.96989 | -118.36834 | 12301 ft | 388 kts | 56° |
| 2026-05-08 01:04 | 33.98498 | -118.34117 | 12835 ft | 390 kts | 55° |
| 2026-05-08 01:04 | 34.00025 | -118.31403 | 13431 ft | 392 kts | 55° |
| 2026-05-08 01:04 | 34.01566 | -118.28683 | 13983 ft | 394 kts | 55° |
| 2026-05-08 01:05 | 34.03117 | -118.25952 | 14438 ft | 397 kts | 55° |
| 2026-05-08 01:05 | 34.04688 | -118.23184 | 14803 ft | 404 kts | 55° |
| 2026-05-08 01:05 | 34.06277 | -118.20380 | 15337 ft | 404 kts | 55° |
| 2026-05-08 01:05 | 34.07860 | -118.17583 | 15854 ft | 405 kts | 55° |
| 2026-05-08 01:06 | 34.09456 | -118.14762 | 16319 ft | 408 kts | 55° |
| 2026-05-08 01:06 | 34.11064 | -118.11915 | 16793 ft | 411 kts | 55° |
| 2026-05-08 01:06 | 34.12682 | -118.09050 | 17216 ft | 414 kts | 55° |
| 2026-05-08 01:06 | 34.14302 | -118.06179 | 17677 ft | 417 kts | 55° |
| 2026-05-08 01:07 | 34.15936 | -118.03279 | 18204 ft | 417 kts | 55° |
| 2026-05-08 01:07 | 34.17571 | -118.00376 | 18570 ft | 420 kts | 54° |
| 2026-05-08 01:07 | 34.19220 | -117.97446 | 18888 ft | 423 kts | 54° |
| 2026-05-08 01:07 | 34.20876 | -117.94498 | 19287 ft | 425 kts | 54° |
| 2026-05-08 01:08 | 34.22540 | -117.91535 | 19640 ft | 427 kts | 54° |
| 2026-05-08 01:08 | 34.24212 | -117.88556 | 19989 ft | 430 kts | 54° |
| 2026-05-08 01:08 | 34.25891 | -117.85562 | 20330 ft | 432 kts | 55° |
| 2026-05-08 01:08 | 34.27584 | -117.82540 | 20654 ft | 434 kts | 55° |
| 2026-05-08 01:09 | 34.29301 | -117.79470 | 21003 ft | 436 kts | 55° |
| 2026-05-08 01:09 | 34.31004 | -117.76425 | 21349 ft | 438 kts | 55° |
| 2026-05-08 01:09 | 34.32712 | -117.73369 | 21671 ft | 439 kts | 55° |
| 2026-05-08 01:09 | 34.34428 | -117.70296 | 21937 ft | 442 kts | 55° |
| 2026-05-08 01:10 | 34.36169 | -117.67215 | 22228 ft | 444 kts | 53° |
| 2026-05-08 01:10 | 34.37964 | -117.64176 | 22548 ft | 446 kts | 53° |
| 2026-05-08 01:10 | 34.39777 | -117.61167 | 22864 ft | 448 kts | 53° |
| 2026-05-08 01:10 | 34.41618 | -117.58125 | 23149 ft | 450 kts | 53° |
| 2026-05-08 01:11 | 34.43471 | -117.55056 | 23420 ft | 452 kts | 53° |
| 2026-05-08 01:11 | 34.45318 | -117.51981 | 23891 ft | 449 kts | 52° |
| 2026-05-08 01:11 | 34.47146 | -117.48923 | 24276 ft | 448 kts | 53° |
| 2026-05-08 01:11 | 34.48980 | -117.45846 | 24468 ft | 452 kts | 52° |
| 2026-05-08 01:12 | 34.50822 | -117.42748 | 24658 ft | 455 kts | 52° |
| 2026-05-08 01:12 | 34.52674 | -117.39630 | 24891 ft | 457 kts | 53° |
| 2026-05-08 01:12 | 34.54532 | -117.36498 | 25158 ft | 457 kts | 53° |
| 2026-05-08 01:12 | 34.56389 | -117.33363 | 25390 ft | 459 kts | 53° |
| 2026-05-08 01:13 | 34.58255 | -117.30212 | 25614 ft | 461 kts | 53° |
| 2026-05-08 01:13 | 34.60125 | -117.27051 | 25855 ft | 462 kts | 53° |
| 2026-05-08 01:13 | 34.62003 | -117.23873 | 26087 ft | 463 kts | 53° |
| 2026-05-08 01:13 | 34.63884 | -117.20689 | 26284 ft | 465 kts | 53° |
| 2026-05-08 01:14 | 34.65771 | -117.17491 | 26414 ft | 466 kts | 53° |
| 2026-05-08 01:14 | 34.67649 | -117.14305 | 26918 ft | 462 kts | 53° |
| 2026-05-08 01:14 | 34.69513 | -117.11141 | 27259 ft | 462 kts | 53° |
| 2026-05-08 01:14 | 34.71388 | -117.07955 | 27542 ft | 463 kts | 53° |
| 2026-05-08 01:15 | 34.73261 | -117.04770 | 27897 ft | 463 kts | 53° |
| 2026-05-08 01:15 | 34.75129 | -117.01591 | 28328 ft | 461 kts | 53° |
| 2026-05-08 01:15 | 34.76989 | -116.98421 | 28796 ft | 459 kts | 53° |
| 2026-05-08 01:15 | 34.78840 | -116.95265 | 29211 ft | 458 kts | 53° |
| 2026-05-08 01:16 | 34.80689 | -116.92108 | 29605 ft | 458 kts | 53° |
| 2026-05-08 01:16 | 34.82535 | -116.88955 | 30040 ft | 457 kts | 53° |
| 2026-05-08 01:16 | 34.84353 | -116.85847 | 30463 ft | 455 kts | 53° |
| 2026-05-08 01:16 | 34.86183 | -116.82715 | 30902 ft | 453 kts | 53° |
| 2026-05-08 01:17 | 34.88004 | -116.79597 | 31261 ft | 452 kts | 53° |
| 2026-05-08 01:17 | 34.89824 | -116.76476 | 31578 ft | 452 kts | 53° |
| 2026-05-08 01:17 | 34.91654 | -116.73348 | 31899 ft | 452 kts | 52° |
| 2026-05-08 01:17 | 34.93627 | -116.70388 | 32247 ft | 450 kts | 47° |
| 2026-05-08 01:18 | 34.95737 | -116.67583 | 32615 ft | 448 kts | 45° |
| 2026-05-08 01:18 | 34.97879 | -116.64824 | 32928 ft | 448 kts | 45° |
| 2026-05-08 01:18 | 35.00030 | -116.62071 | 33223 ft | 447 kts | 45° |
| 2026-05-08 01:18 | 35.02169 | -116.59315 | 33537 ft | 447 kts | 45° |
| 2026-05-08 01:19 | 35.04293 | -116.56555 | 33868 ft | 446 kts | 45° |
| 2026-05-08 01:19 | 35.06402 | -116.53793 | 34163 ft | 444 kts | 46° |
| 2026-05-08 01:19 | 35.08503 | -116.51026 | 34444 ft | 443 kts | 46° |
| 2026-05-08 01:19 | 35.10595 | -116.48262 | 34669 ft | 443 kts | 46° |
| 2026-05-08 01:20 | 35.12687 | -116.45493 | 34855 ft | 444 kts | 46° |
| 2026-05-08 01:20 | 35.16891 | -116.39920 | 34890 ft | 445 kts | 46° |
| 2026-05-08 01:21 | 35.21073 | -116.34369 | 34885 ft | 443 kts | 46° |
| 2026-05-08 01:21 | 35.25238 | -116.28832 | 34888 ft | 442 kts | 46° |
| 2026-05-08 01:22 | 35.29402 | -116.23288 | 34880 ft | 442 kts | 46° |
| 2026-05-08 01:22 | 35.33532 | -116.17781 | 34872 ft | 442 kts | 46° |
| 2026-05-08 01:23 | 35.37717 | -116.12191 | 34883 ft | 442 kts | 46° |
| 2026-05-08 01:23 | 35.41842 | -116.06672 | 34889 ft | 442 kts | 46° |
| 2026-05-08 01:24 | 35.45990 | -116.01113 | 34910 ft | 442 kts | 46° |
| 2026-05-08 01:24 | 35.50138 | -115.95544 | 34913 ft | 442 kts | 46° |
| 2026-05-08 01:25 | 35.54291 | -115.89961 | 34911 ft | 443 kts | 46° |
| 2026-05-08 01:25 | 35.58442 | -115.84369 | 34928 ft | 443 kts | 46° |
| 2026-05-08 01:26 | 35.62593 | -115.78770 | 34925 ft | 443 kts | 46° |
| 2026-05-08 01:26 | 35.66722 | -115.73146 | 34942 ft | 443 kts | 46° |
| 2026-05-08 01:27 | 35.70836 | -115.67486 | 34939 ft | 443 kts | 46° |
| 2026-05-08 01:27 | 35.74945 | -115.61826 | 34959 ft | 443 kts | 46° |
| 2026-05-08 01:28 | 35.79055 | -115.56159 | 34951 ft | 443 kts | 46° |
| 2026-05-08 01:28 | 35.83127 | -115.50540 | 34947 ft | 443 kts | 46° |
| 2026-05-08 01:29 | 35.87255 | -115.44832 | 34955 ft | 442 kts | 46° |
| 2026-05-08 01:29 | 35.91339 | -115.39176 | 34946 ft | 442 kts | 46° |
| 2026-05-08 01:30 | 35.95421 | -115.33513 | 34948 ft | 442 kts | 46° |
| 2026-05-08 01:30 | 35.99503 | -115.27841 | 34953 ft | 442 kts | 46° |
| 2026-05-08 01:31 | 36.03578 | -115.22169 | 34913 ft | 441 kts | 46° |
| 2026-05-08 01:31 | 36.07484 | -115.16324 | 34910 ft | 443 kts | 55° |
| 2026-05-08 01:32 | 36.10115 | -115.09471 | 34926 ft | 446 kts | 67° |
| 2026-05-08 01:32 | 36.12247 | -115.02256 | 34904 ft | 447 kts | 67° |
| 2026-05-08 01:33 | 36.14412 | -114.95045 | 34848 ft | 447 kts | 66° |
| 2026-05-08 01:33 | 36.16606 | -114.87843 | 34839 ft | 447 kts | 66° |
| 2026-05-08 01:34 | 36.18802 | -114.80633 | 34834 ft | 447 kts | 66° |
| 2026-05-08 01:34 | 36.21012 | -114.73430 | 34821 ft | 448 kts | 66° |
| 2026-05-08 01:35 | 36.23224 | -114.66221 | 34811 ft | 448 kts | 66° |
| 2026-05-08 01:35 | 36.25432 | -114.59007 | 34794 ft | 448 kts | 66° |
| 2026-05-08 01:36 | 36.27635 | -114.51782 | 34796 ft | 448 kts | 66° |
| 2026-05-08 01:36 | 36.29820 | -114.44593 | 34802 ft | 449 kts | 66° |
| 2026-05-08 01:37 | 36.32021 | -114.37336 | 34801 ft | 450 kts | 66° |
| 2026-05-08 01:37 | 36.34217 | -114.30075 | 34810 ft | 450 kts | 66° |
| 2026-05-08 01:38 | 36.36408 | -114.22813 | 34818 ft | 450 kts | 66° |
| 2026-05-08 01:38 | 36.38595 | -114.15545 | 34825 ft | 449 kts | 66° |
| 2026-05-08 01:39 | 36.40778 | -114.08271 | 34820 ft | 449 kts | 66° |
| 2026-05-08 01:39 | 36.42587 | -114.02229 | 34831 ft | 449 kts | 66° |
| 2026-05-08 01:40 | 36.44758 | -113.94960 | 34855 ft | 448 kts | 66° |
| 2026-05-08 01:40 | 36.46921 | -113.87703 | 34867 ft | 448 kts | 66° |
| 2026-05-08 01:41 | 36.49079 | -113.80440 | 34871 ft | 448 kts | 66° |
| 2026-05-08 01:41 | 36.51234 | -113.73169 | 34905 ft | 448 kts | 66° |
| 2026-05-08 01:42 | 36.53384 | -113.65898 | 34886 ft | 448 kts | 66° |
| 2026-05-08 01:42 | 36.55532 | -113.58612 | 34904 ft | 448 kts | 66° |
| 2026-05-08 01:43 | 36.57673 | -113.51329 | 34901 ft | 448 kts | 67° |
| 2026-05-08 01:43 | 36.59810 | -113.44045 | 34910 ft | 448 kts | 67° |
| 2026-05-08 01:44 | 36.61941 | -113.36762 | 34917 ft | 448 kts | 66° |
| 2026-05-08 01:44 | 36.64063 | -113.29470 | 34916 ft | 448 kts | 67° |
| 2026-05-08 01:45 | 36.66173 | -113.22162 | 34929 ft | 448 kts | 67° |
| 2026-05-08 01:45 | 36.68263 | -113.14900 | 34961 ft | 448 kts | 67° |
| 2026-05-08 01:46 | 36.70366 | -113.07580 | 34992 ft | 448 kts | 67° |
| 2026-05-08 01:46 | 36.72464 | -113.00260 | 34999 ft | 448 kts | 67° |
| 2026-05-08 01:47 | 36.74558 | -112.92936 | 35007 ft | 448 kts | 67° |
| 2026-05-08 01:47 | 36.76648 | -112.85604 | 35004 ft | 448 kts | 67° |
| 2026-05-08 01:48 | 36.79776 | -112.74594 | 34994 ft | 448 kts | 67° |
| 2026-05-08 01:48 | 36.81852 | -112.67261 | 34967 ft | 448 kts | 67° |
| 2026-05-08 01:49 | 36.83926 | -112.59917 | 34945 ft | 448 kts | 67° |
| 2026-05-08 01:49 | 36.85977 | -112.52632 | 34944 ft | 448 kts | 67° |
| 2026-05-08 01:50 | 36.88039 | -112.45295 | 34976 ft | 447 kts | 67° |
| 2026-05-08 01:50 | 36.90100 | -112.37953 | 34961 ft | 448 kts | 66° |
| 2026-05-08 01:51 | 36.92163 | -112.30604 | 34962 ft | 448 kts | 66° |
| 2026-05-08 01:51 | 36.94223 | -112.23251 | 34957 ft | 448 kts | 66° |
| 2026-05-08 01:52 | 36.96279 | -112.15894 | 34953 ft | 448 kts | 67° |
| 2026-05-08 01:52 | 36.98331 | -112.08528 | 34948 ft | 449 kts | 66° |
| 2026-05-08 01:53 | 37.00381 | -112.01146 | 34935 ft | 449 kts | 66° |
| 2026-05-08 01:53 | 37.02429 | -111.93754 | 34933 ft | 450 kts | 67° |
| 2026-05-08 01:54 | 37.04476 | -111.86342 | 34909 ft | 450 kts | 67° |
| 2026-05-08 01:54 | 37.06522 | -111.78917 | 34904 ft | 451 kts | 67° |
| 2026-05-08 01:55 | 37.08565 | -111.71477 | 34907 ft | 453 kts | 67° |
| 2026-05-08 01:55 | 37.10601 | -111.64046 | 34898 ft | 455 kts | 67° |
| 2026-05-08 01:56 | 37.12652 | -111.56538 | 34895 ft | 456 kts | 67° |
| 2026-05-08 01:56 | 37.14703 | -111.49003 | 34957 ft | 457 kts | 67° |
| 2026-05-08 01:57 | 37.16753 | -111.41454 | 34960 ft | 457 kts | 67° |
| 2026-05-08 01:57 | 37.18800 | -111.33893 | 34934 ft | 458 kts | 67° |
| 2026-05-08 01:58 | 37.20842 | -111.26332 | 34915 ft | 457 kts | 67° |
| 2026-05-08 01:58 | 37.23124 | -111.18923 | 34902 ft | 452 kts | 60° |
| 2026-05-08 01:59 | 37.25962 | -111.11883 | 34897 ft | 452 kts | 58° |
| 2026-05-08 01:59 | 37.28828 | -111.04917 | 34907 ft | 452 kts | 58° |
| 2026-05-08 02:00 | 37.31690 | -110.97823 | 34899 ft | 452 kts | 59° |
| 2026-05-08 02:00 | 37.34482 | -110.90797 | 34905 ft | 452 kts | 59° |
| 2026-05-08 02:01 | 37.37297 | -110.83672 | 34910 ft | 452 kts | 59° |
| 2026-05-08 02:01 | 37.40073 | -110.76631 | 34903 ft | 452 kts | 59° |
| 2026-05-08 02:02 | 37.42864 | -110.69539 | 34910 ft | 452 kts | 59° |
| 2026-05-08 02:02 | 37.45650 | -110.62445 | 34906 ft | 452 kts | 59° |
| 2026-05-08 02:03 | 37.48431 | -110.55349 | 34920 ft | 453 kts | 59° |
| 2026-05-08 02:03 | 37.51216 | -110.48224 | 34918 ft | 453 kts | 59° |
| 2026-05-08 02:04 | 37.53996 | -110.41098 | 34926 ft | 454 kts | 59° |
| 2026-05-08 02:04 | 37.56778 | -110.33949 | 34914 ft | 455 kts | 59° |
| 2026-05-08 02:05 | 37.59558 | -110.26790 | 34937 ft | 455 kts | 59° |
| 2026-05-08 02:05 | 37.62344 | -110.19600 | 34955 ft | 456 kts | 59° |
| 2026-05-08 02:06 | 37.65130 | -110.12392 | 34974 ft | 457 kts | 59° |
| 2026-05-08 02:06 | 37.67915 | -110.05169 | 34979 ft | 459 kts | 59° |
| 2026-05-08 02:07 | 37.70708 | -109.97909 | 34976 ft | 460 kts | 59° |
| 2026-05-08 02:07 | 37.73496 | -109.90643 | 34989 ft | 460 kts | 59° |
| 2026-05-08 02:08 | 37.76284 | -109.83362 | 34980 ft | 460 kts | 59° |
| 2026-05-08 02:08 | 37.79066 | -109.76077 | 34998 ft | 460 kts | 59° |
| 2026-05-08 02:09 | 37.81828 | -109.68830 | 34987 ft | 461 kts | 59° |
| 2026-05-08 02:09 | 37.84603 | -109.61530 | 35029 ft | 460 kts | 59° |
| 2026-05-08 02:10 | 37.87372 | -109.54230 | 35025 ft | 461 kts | 59° |
| 2026-05-08 02:10 | 37.90141 | -109.46911 | 35018 ft | 461 kts | 59° |
| 2026-05-08 02:11 | 37.92911 | -109.39574 | 34992 ft | 462 kts | 59° |
| 2026-05-08 02:11 | 37.95675 | -109.32233 | 35002 ft | 462 kts | 59° |
| 2026-05-08 02:12 | 37.98438 | -109.24879 | 34995 ft | 462 kts | 59° |
| 2026-05-08 02:12 | 38.01196 | -109.17520 | 34998 ft | 462 kts | 59° |
| 2026-05-08 02:13 | 38.03954 | -109.10140 | 35007 ft | 463 kts | 59° |
| 2026-05-08 02:13 | 38.06694 | -109.02792 | 34996 ft | 464 kts | 59° |
| 2026-05-08 02:14 | 38.09456 | -108.95370 | 34997 ft | 465 kts | 59° |
| 2026-05-08 02:14 | 38.12282 | -108.87980 | 34980 ft | 465 kts | 58° |
| 2026-05-08 02:15 | 38.15195 | -108.80641 | 34971 ft | 465 kts | 57° |
| 2026-05-08 02:15 | 38.18103 | -108.73296 | 34981 ft | 466 kts | 57° |
| 2026-05-08 02:16 | 38.21001 | -108.65915 | 34995 ft | 467 kts | 58° |
| 2026-05-08 02:16 | 38.23890 | -108.58517 | 34987 ft | 467 kts | 58° |
| 2026-05-08 02:17 | 38.26778 | -108.51105 | 35000 ft | 467 kts | 58° |
| 2026-05-08 02:17 | 38.29641 | -108.43737 | 34993 ft | 467 kts | 58° |
| 2026-05-08 02:18 | 38.32522 | -108.36309 | 34997 ft | 468 kts | 58° |
| 2026-05-08 02:18 | 38.35397 | -108.28877 | 35031 ft | 468 kts | 57° |
| 2026-05-08 02:19 | 38.38275 | -108.21421 | 35038 ft | 469 kts | 57° |
| 2026-05-08 02:19 | 38.41150 | -108.13953 | 35054 ft | 470 kts | 57° |
| 2026-05-08 02:20 | 38.44027 | -108.06462 | 35080 ft | 470 kts | 57° |
| 2026-05-08 02:20 | 38.46883 | -107.99001 | 35106 ft | 471 kts | 58° |
| 2026-05-08 02:21 | 38.49730 | -107.91480 | 35101 ft | 471 kts | 58° |
| 2026-05-08 02:21 | 38.52586 | -107.83898 | 35109 ft | 471 kts | 58° |
| 2026-05-08 02:22 | 38.53987 | -107.80175 | 34990 ft | 471 kts | 58° |
| 2026-05-08 02:22 | 38.55406 | -107.76402 | 34985 ft | 471 kts | 58° |
| 2026-05-08 02:22 | 38.58238 | -107.68859 | 34991 ft | 471 kts | 58° |
| 2026-05-08 02:23 | 38.61071 | -107.61300 | 34986 ft | 472 kts | 58° |
| 2026-05-08 02:23 | 38.63900 | -107.53730 | 35004 ft | 472 kts | 58° |
| 2026-05-08 02:24 | 38.66737 | -107.46140 | 35034 ft | 472 kts | 58° |
| 2026-05-08 02:24 | 38.69125 | -107.39842 | 35032 ft | 473 kts | 57° |
| 2026-05-08 02:25 | 38.72004 | -107.32257 | 35063 ft | 474 kts | 58° |
| 2026-05-08 02:25 | 38.74883 | -107.24636 | 35045 ft | 475 kts | 57° |
| 2026-05-08 02:26 | 38.77756 | -107.17002 | 35046 ft | 476 kts | 57° |
| 2026-05-08 02:26 | 38.80627 | -107.09349 | 35041 ft | 476 kts | 57° |
| 2026-05-08 02:27 | 38.83485 | -107.01709 | 35065 ft | 475 kts | 58° |
| 2026-05-08 02:27 | 38.86341 | -106.94058 | 35068 ft | 475 kts | 58° |
| 2026-05-08 02:28 | 38.89190 | -106.86410 | 35090 ft | 475 kts | 58° |
| 2026-05-08 02:28 | 38.92041 | -106.78735 | 35083 ft | 476 kts | 58° |
| 2026-05-08 02:29 | 38.94872 | -106.71092 | 35108 ft | 476 kts | 58° |
| 2026-05-08 02:29 | 38.97712 | -106.63406 | 35111 ft | 477 kts | 58° |
| 2026-05-08 02:30 | 39.00553 | -106.55697 | 35164 ft | 477 kts | 58° |
| 2026-05-08 02:30 | 39.03387 | -106.47959 | 35195 ft | 478 kts | 58° |
| 2026-05-08 02:31 | 39.04804 | -106.44082 | 34984 ft | 483 kts | 58° |
| 2026-05-08 02:31 | 39.06244 | -106.40142 | 34272 ft | 484 kts | 58° |
| 2026-05-08 02:31 | 39.07658 | -106.36252 | 33375 ft | 477 kts | 58° |
| 2026-05-08 02:31 | 39.09051 | -106.32414 | 32539 ft | 471 kts | 59° |
| 2026-05-08 02:32 | 39.10431 | -106.28615 | 31714 ft | 464 kts | 59° |
| 2026-05-08 02:32 | 39.11792 | -106.24868 | 30847 ft | 460 kts | 59° |
| 2026-05-08 02:32 | 39.13144 | -106.21145 | 29956 ft | 456 kts | 60° |
| 2026-05-08 02:32 | 39.14479 | -106.17463 | 29051 ft | 451 kts | 60° |
| 2026-05-08 02:33 | 39.15793 | -106.13826 | 28203 ft | 445 kts | 60° |
| 2026-05-08 02:33 | 39.17085 | -106.10236 | 27342 ft | 439 kts | 60° |
| 2026-05-08 02:33 | 39.18361 | -106.06684 | 26534 ft | 434 kts | 60° |
| 2026-05-08 02:33 | 39.19617 | -106.03183 | 25971 ft | 428 kts | 60° |
| 2026-05-08 02:34 | 39.20868 | -105.99699 | 25412 ft | 428 kts | 60° |
| 2026-05-08 02:34 | 39.22117 | -105.96220 | 24869 ft | 428 kts | 61° |
| 2026-05-08 02:34 | 39.23363 | -105.92741 | 24278 ft | 427 kts | 61° |
| 2026-05-08 02:34 | 39.24594 | -105.89305 | 23747 ft | 427 kts | 61° |
| 2026-05-08 02:35 | 39.25850 | -105.85820 | 23142 ft | 427 kts | 61° |
| 2026-05-08 02:35 | 39.27100 | -105.82355 | 22582 ft | 425 kts | 61° |
| 2026-05-08 02:35 | 39.28343 | -105.78902 | 22045 ft | 423 kts | 61° |
| 2026-05-08 02:35 | 39.29574 | -105.75477 | 21500 ft | 417 kts | 61° |
| 2026-05-08 02:36 | 39.30789 | -105.72095 | 20976 ft | 414 kts | 61° |
| 2026-05-08 02:36 | 39.31979 | -105.68769 | 20832 ft | 401 kts | 61° |
| 2026-05-08 02:36 | 39.33143 | -105.65532 | 20462 ft | 396 kts | 60° |
| 2026-05-08 02:36 | 39.34312 | -105.62329 | 19985 ft | 392 kts | 61° |
| 2026-05-08 02:37 | 39.35462 | -105.59189 | 19527 ft | 382 kts | 61° |
| 2026-05-08 02:37 | 39.36581 | -105.56128 | 19080 ft | 372 kts | 61° |
| 2026-05-08 02:37 | 39.37671 | -105.53143 | 18663 ft | 363 kts | 61° |
| 2026-05-08 02:37 | 39.38739 | -105.50215 | 18222 ft | 356 kts | 61° |
| 2026-05-08 02:38 | 39.39776 | -105.47361 | 17951 ft | 343 kts | 61° |
| 2026-05-08 02:38 | 39.40767 | -105.44628 | 17773 ft | 328 kts | 61° |
| 2026-05-08 02:38 | 39.41613 | -105.41943 | 17583 ft | 320 kts | 74° |
| 2026-05-08 02:38 | 39.41772 | -105.39081 | 17310 ft | 320 kts | 87° |
| 2026-05-08 02:39 | 39.41773 | -105.36159 | 16957 ft | 332 kts | 88° |
| 2026-05-08 02:39 | 39.41771 | -105.33108 | 16579 ft | 345 kts | 88° |
| 2026-05-08 02:39 | 39.41772 | -105.30000 | 16197 ft | 346 kts | 88° |
| 2026-05-08 02:39 | 39.41777 | -105.26891 | 15810 ft | 345 kts | 88° |
| 2026-05-08 02:40 | 39.41787 | -105.23797 | 15434 ft | 343 kts | 88° |
| 2026-05-08 02:40 | 39.41798 | -105.20711 | 15065 ft | 342 kts | 87° |
| 2026-05-08 02:40 | 39.41811 | -105.17642 | 14690 ft | 342 kts | 87° |
| 2026-05-08 02:40 | 39.41824 | -105.14571 | 14312 ft | 341 kts | 88° |
| 2026-05-08 02:41 | 39.41837 | -105.11509 | 13969 ft | 340 kts | 88° |
| 2026-05-08 02:41 | 39.41849 | -105.08453 | 13604 ft | 337 kts | 88° |
| 2026-05-08 02:41 | 39.41859 | -105.05502 | 13440 ft | 321 kts | 88° |
| 2026-05-08 02:41 | 39.41868 | -105.02675 | 13269 ft | 307 kts | 88° |
| 2026-05-08 02:42 | 39.41877 | -104.99974 | 13192 ft | 293 kts | 87° |
| 2026-05-08 02:42 | 39.41884 | -104.97398 | 13069 ft | 281 kts | 87° |
| 2026-05-08 02:42 | 39.41890 | -104.94933 | 12969 ft | 268 kts | 87° |
| 2026-05-08 02:42 | 39.41990 | -104.92545 | 12737 ft | 266 kts | 80° |
| 2026-05-08 02:43 | 39.42221 | -104.90145 | 12525 ft | 273 kts | 79° |
| 2026-05-08 02:43 | 39.42462 | -104.87688 | 12262 ft | 278 kts | 80° |
| 2026-05-08 02:43 | 39.42698 | -104.85199 | 11985 ft | 278 kts | 80° |
| 2026-05-08 02:43 | 39.42925 | -104.82725 | 11706 ft | 277 kts | 80° |
| 2026-05-08 02:44 | 39.43145 | -104.80261 | 11431 ft | 275 kts | 80° |
| 2026-05-08 02:44 | 39.43362 | -104.77812 | 11158 ft | 273 kts | 81° |
| 2026-05-08 02:44 | 39.43674 | -104.75416 | 11013 ft | 268 kts | 67° |
| 2026-05-08 02:44 | 39.44374 | -104.73203 | 11008 ft | 265 kts | 63° |
| 2026-05-08 02:45 | 39.45106 | -104.71017 | 10995 ft | 263 kts | 59° |
| 2026-05-08 02:45 | 39.45932 | -104.69563 | 10977 ft | 253 kts | 32° |
| 2026-05-08 02:45 | 39.47298 | -104.68522 | 11005 ft | 250 kts | 16° |
| 2026-05-08 02:45 | 39.48980 | -104.67850 | 11005 ft | 250 kts | 9° |
| 2026-05-08 02:46 | 39.50651 | -104.67306 | 10995 ft | 249 kts | 9° |
| 2026-05-08 02:46 | 39.52318 | -104.66758 | 10985 ft | 245 kts | 9° |
| 2026-05-08 02:46 | 39.53967 | -104.66303 | 10898 ft | 241 kts | 359° |
| 2026-05-08 02:46 | 39.55646 | -104.66293 | 10583 ft | 243 kts | 354° |
| 2026-05-08 02:47 | 39.57352 | -104.66314 | 10273 ft | 245 kts | 355° |
| 2026-05-08 02:47 | 39.59060 | -104.66317 | 9962 ft | 247 kts | 355° |
| 2026-05-08 02:47 | 39.60787 | -104.66311 | 9605 ft | 248 kts | 356° |
| 2026-05-08 02:47 | 39.62504 | -104.66298 | 9369 ft | 246 kts | 356° |
| 2026-05-08 02:48 | 39.64217 | -104.66279 | 9055 ft | 245 kts | 356° |
| 2026-05-08 02:48 | 39.65910 | -104.66258 | 8726 ft | 240 kts | 356° |
| 2026-05-08 02:48 | 39.67558 | -104.66237 | 8417 ft | 234 kts | 357° |
| 2026-05-08 02:48 | 39.69160 | -104.66218 | 8101 ft | 227 kts | 357° |
| 2026-05-08 02:49 | 39.70713 | -104.66199 | 7796 ft | 219 kts | 357° |
| 2026-05-08 02:49 | 39.72188 | -104.66181 | 7527 ft | 205 kts | 357° |
| 2026-05-08 02:49 | 39.73568 | -104.66164 | 7290 ft | 192 kts | 357° |
| 2026-05-08 02:49 | 39.74833 | -104.66148 | 7060 ft | 173 kts | 356° |
| 2026-05-08 02:50 | 39.75980 | -104.66135 | 6829 ft | 156 kts | 356° |
| 2026-05-08 02:50 | 39.77040 | -104.66123 | 6644 ft | 153 kts | 356° |
| 2026-05-08 02:50 | 39.78134 | -104.66113 | 6454 ft | 160 kts | 356° |
| 2026-05-08 02:50 | 39.79248 | -104.66102 | 6227 ft | 159 kts | 359° |
| 2026-05-08 02:51 | 39.80343 | -104.66088 | 6009 ft | 161 kts | 360° |
| 2026-05-08 02:51 | 39.81468 | -104.66071 | 5758 ft | 161 kts | 0° |
| 2026-05-08 02:51 | 39.82583 | -104.66060 | 5527 ft | 159 kts | 1° |
| 2026-05-08 02:51 | 39.83665 | -104.66049 | 5426 ft | 146 kts | 0° |
| 2026-05-08 02:52 | 39.84558 | -104.66034 | 5409 ft | 110 kts | 1° |
| 2026-05-08 02:52 | 39.85033 | -104.66040 | 5402 ft | 38 kts | 354° |
| 2026-05-08 02:52 | 39.85228 | -104.66105 | 5399 ft | 20 kts | 334° |
| 2026-05-08 02:52 | 39.85293 | -104.66185 | 5391 ft | 5 kts | 271° |
| 2026-05-08 02:53 | 39.85293 | -104.66191 | 5393 ft | 0 kts | 269° |
| 2026-05-08 02:54 | 39.85293 | -104.66215 | 5394 ft | 0 kts | 269° |
| 2026-05-08 02:54 | 39.85279 | -104.66233 | 5395 ft | 8 kts | 204° |
| 2026-05-08 02:55 | 39.85210 | -104.66281 | 5391 ft | 13 kts | 246° |
| 2026-05-08 02:55 | 39.85228 | -104.66588 | 5386 ft | 19 kts | 281° |
| 2026-05-08 02:55 | 39.85231 | -104.66766 | 5382 ft | 21 kts | 271° |
| 2026-05-08 02:56 | 39.85232 | -104.66954 | 5382 ft | 21 kts | 270° |
| 2026-05-08 02:56 | 39.85234 | -104.67136 | 5382 ft | 14 kts | 270° |
| 2026-05-08 02:56 | 39.85235 | -104.67208 | 5382 ft | 8 kts | 279° |
| 2026-05-08 02:56 | 39.85260 | -104.67303 | 5382 ft | 16 kts | 289° |
| 2026-05-08 02:57 | 39.85278 | -104.67449 | 5382 ft | 16 kts | 268° |
| 2026-05-08 02:57 | 39.85278 | -104.67592 | 5382 ft | 15 kts | 273° |
| 2026-05-08 02:57 | 39.85280 | -104.67724 | 5382 ft | 12 kts | 270° |
| 2026-05-08 02:57 | 39.85281 | -104.67831 | 5382 ft | 12 kts | 269° |
| 2026-05-08 02:58 | 39.85315 | -104.67879 | 5382 ft | 3 kts | 352° |
| 2026-05-08 02:58 | 39.85336 | -104.67879 | 5382 ft | 3 kts | 360° |
| 2026-05-08 02:58 | 39.85339 | -104.67879 | 5382 ft | 0 kts | 360° |